createdAt,value
2022-09-29T00:04:31.122Z,6.90
2022-09-29T00:09:23.393Z,6.47
2022-09-29T00:14:15.644Z,6.20
2022-09-29T00:19:07.984Z,5.30
2022-09-29T00:24:01.594Z,5.87
2022-09-29T00:28:57.109Z,5.43
2022-09-29T00:33:50.870Z,5.60
2022-09-29T00:38:44.436Z,5.67
2022-09-29T00:43:48.821Z,5.47
2022-09-29T00:48:41.895Z,4.93
2022-09-29T00:53:35.083Z,5.07
2022-09-29T00:58:33.446Z,5.23
2022-09-29T01:03:30.880Z,5.17
2022-09-29T01:08:39.640Z,5.23
2022-09-29T01:13:34.132Z,5.57
2022-09-29T01:18:26.850Z,5.13
2022-09-29T01:23:53.732Z,4.93
2022-09-29T01:29:13.301Z,4.43
2022-09-29T01:34:21.544Z,4.90
2022-09-29T01:39:16.873Z,4.87
2022-09-29T01:44:15.338Z,4.53
2022-09-29T01:49:09.966Z,4.80
2022-09-29T01:54:10.160Z,4.63
2022-09-29T01:59:27.788Z,4.60
2022-09-29T02:04:54.021Z,3.73
2022-09-29T02:09:51.216Z,4.63
2022-09-29T02:14:47.461Z,4.07
2022-09-29T02:19:43.302Z,3.97
2022-09-29T02:24:36.618Z,4.30
2022-09-29T02:29:28.899Z,4.80
2022-09-29T02:34:22.533Z,4.33
2022-09-29T02:39:33.486Z,3.97
2022-09-29T02:44:45.360Z,3.83
2022-09-29T02:50:08.041Z,4.70
2022-09-29T02:55:29.900Z,4.23
2022-09-29T03:00:23.101Z,3.90
2022-09-29T03:05:18.528Z,4.43
2022-09-29T03:10:12.064Z,4.73
2022-09-29T03:15:05.318Z,4.60
2022-09-29T03:19:58.063Z,4.37
2022-09-29T03:24:50.254Z,6.23
2022-09-29T03:29:42.450Z,6.33
2022-09-29T03:34:35.519Z,3.77
2022-09-29T03:39:28.568Z,4.50
2022-09-29T03:44:20.894Z,4.00
2022-09-29T03:49:14.034Z,4.43
2022-09-29T03:54:07.262Z,4.07
2022-09-29T03:58:59.530Z,3.77
2022-09-29T04:03:51.803Z,4.57
2022-09-29T04:08:44.112Z,4.23
2022-09-29T04:13:36.415Z,4.30
2022-09-29T04:18:29.146Z,4.07
2022-09-29T04:23:21.568Z,4.37
2022-09-29T04:28:13.993Z,4.23
2022-09-29T04:34:02.623Z,4.17
2022-09-29T04:40:09.560Z,4.57
2022-09-29T04:46:17.045Z,4.77
2022-09-29T04:52:24.095Z,5.10
2022-09-29T04:58:31.448Z,4.87
2022-09-29T05:04:38.558Z,4.10
2022-09-29T05:10:45.803Z,4.70
2022-09-29T05:16:53.067Z,6.33
2022-09-29T05:23:00.403Z,17.23
2022-09-29T05:35:06.889Z,4.90
2022-09-29T05:41:14.213Z,5.20
2022-09-29T05:47:21.391Z,4.17
2022-09-29T05:53:28.948Z,4.57
2022-09-29T05:59:36.061Z,4.30
2022-09-29T06:05:43.177Z,4.17
2022-09-29T06:11:53.915Z,5.00
2022-09-29T06:18:01.743Z,4.67
2022-09-29T06:24:08.937Z,4.77
2022-09-29T06:29:19.813Z,5.80
2022-09-29T06:34:12.349Z,5.30
2022-09-29T06:39:07.458Z,4.93
2022-09-29T06:43:59.634Z,5.27
2022-09-29T06:48:53.310Z,5.70
2022-09-29T06:53:46.618Z,4.80
2022-09-29T06:58:39.262Z,4.40
2022-09-29T07:03:31.828Z,4.10
2022-09-29T07:08:24.225Z,4.50
2022-09-29T07:13:16.594Z,3.37
2022-09-29T07:18:10.080Z,4.30
2022-09-29T07:23:02.410Z,3.53
2022-09-29T07:27:54.575Z,3.70
2022-09-29T07:32:57.990Z,3.60
2022-09-29T07:37:54.342Z,3.90
2022-09-29T07:42:46.530Z,4.03
2022-09-29T07:47:40.712Z,3.90
2022-09-29T07:52:32.910Z,4.07
2022-09-29T07:57:25.476Z,4.13
2022-09-29T08:02:18.151Z,3.90
2022-09-29T08:07:11.676Z,4.07
2022-09-29T08:12:08.198Z,3.63
2022-09-29T08:17:00.883Z,4.17
2022-09-29T08:21:53.559Z,4.40
2022-09-29T08:26:46.400Z,4.40
2022-09-29T08:31:39.055Z,4.77
2022-09-29T08:36:32.233Z,3.77
2022-09-29T08:41:37.813Z,4.30
2022-09-29T08:46:38.017Z,4.70
2022-09-29T08:51:42.478Z,4.47
2022-09-29T08:56:36.134Z,4.97
2022-09-29T09:01:28.350Z,4.03
2022-09-29T09:06:49.540Z,4.20
2022-09-29T09:12:08.138Z,4.40
2022-09-29T09:17:19.471Z,4.37
2022-09-29T09:22:44.237Z,4.20
2022-09-29T09:27:47.579Z,4.07
2022-09-29T09:32:54.205Z,2.83
2022-09-29T09:37:48.496Z,1.93
2022-09-29T09:42:45.765Z,2.40
2022-09-29T09:47:55.637Z,2.90
2022-09-29T09:52:52.508Z,1.38
2022-09-29T09:58:09.235Z,1.95
2022-09-29T10:03:05.376Z,2.88
2022-09-29T10:07:58.596Z,1.80
2022-09-29T10:13:03.945Z,2.92
2022-09-29T10:18:05.111Z,1.73
2022-09-29T10:23:33.776Z,2.40
2022-09-29T10:28:29.853Z,1.55
2022-09-29T10:33:24.853Z,1.27
2022-09-29T10:38:20.772Z,1.40
2022-09-29T10:43:44.389Z,1.08
2022-09-29T10:48:36.637Z,1.10
2022-09-29T10:53:40.782Z,1.30
2022-09-29T10:59:29.525Z,1.10
2022-09-29T11:05:36.533Z,1.30
2022-09-29T11:11:43.970Z,1.50
2022-09-29T11:17:51.010Z,1.93
2022-09-29T11:23:59.078Z,1.40
2022-09-29T11:30:06.588Z,1.30
2022-09-29T11:36:13.821Z,0.60
2022-09-29T11:42:31.765Z,0.53
2022-09-29T11:48:41.640Z,0.70
2022-09-29T11:54:48.706Z,0.60
2022-09-29T12:00:56.382Z,0.80
2022-09-29T12:07:03.917Z,0.60
2022-09-29T12:13:12.163Z,0.70
2022-09-29T12:19:19.534Z,0.90
2022-09-29T12:25:26.611Z,0.80
2022-09-29T12:31:34.019Z,0.70
2022-09-29T12:37:42.204Z,0.90
2022-09-29T12:43:50.202Z,0.80
2022-09-29T12:49:57.286Z,0.60
2022-09-29T12:56:04.807Z,0.67
2022-09-29T13:01:06.875Z,1.47
2022-09-29T13:06:24.385Z,1.20
2022-09-29T13:11:36.023Z,1.33
2022-09-29T13:16:37.168Z,1.33
2022-09-29T13:21:33.083Z,1.10
2022-09-29T13:26:51.076Z,0.90
2022-09-29T13:32:39.398Z,1.23
2022-09-29T13:38:47.027Z,1.03
2022-09-29T13:44:54.323Z,0.90
2022-09-29T13:51:05.257Z,0.77
2022-09-29T13:57:12.896Z,1.00
2022-09-29T14:03:20.125Z,1.00
2022-09-29T14:09:27.697Z,1.37
2022-09-29T14:15:34.897Z,0.80
2022-09-29T14:21:43.354Z,1.00
2022-09-29T14:27:50.454Z,0.60
2022-09-29T14:33:57.772Z,1.00
2022-09-29T14:40:05.006Z,1.07
2022-09-29T14:46:12.496Z,0.70
2022-09-29T14:52:20.468Z,0.90
2022-09-29T14:58:27.920Z,1.00
2022-09-29T15:04:35.222Z,0.80
2022-09-29T15:10:42.674Z,1.00
2022-09-29T15:16:49.781Z,1.00
2022-09-29T15:22:58.012Z,1.13
2022-09-29T15:29:05.374Z,0.90
2022-09-29T15:34:17.872Z,1.10
2022-09-29T15:39:34.880Z,1.17
2022-09-29T15:44:30.414Z,2.20
2022-09-29T15:49:30.348Z,1.77
2022-09-29T15:54:23.667Z,1.80
2022-09-29T15:59:20.108Z,1.90
2022-09-29T16:04:13.264Z,2.37
2022-09-29T16:09:17.821Z,1.97
2022-09-29T16:14:20.078Z,2.10
2022-09-29T16:19:32.927Z,1.83
2022-09-29T16:24:32.830Z,1.83
2022-09-29T16:29:30.997Z,3.33
2022-09-29T16:34:32.623Z,4.87
2022-09-29T16:39:43.549Z,3.90
2022-09-29T16:44:50.683Z,5.37
2022-09-29T16:49:48.934Z,3.53
2022-09-29T16:54:44.050Z,3.33
2022-09-29T16:59:36.527Z,3.93
2022-09-29T17:04:31.752Z,3.80
2022-09-29T17:09:28.560Z,4.73
2022-09-29T17:14:22.151Z,7.93
2022-09-29T17:19:15.640Z,5.53
2022-09-29T17:24:08.047Z,5.73
2022-09-29T17:29:00.659Z,8.77
2022-09-29T17:33:53.261Z,6.80
2022-09-29T17:38:50.832Z,5.47
2022-09-29T17:43:49.319Z,5.27
2022-09-29T17:48:45.111Z,5.93
2022-09-29T17:53:38.116Z,10.33
2022-09-29T17:58:31.825Z,13.43
2022-09-29T18:03:26.971Z,11.57
2022-09-29T18:08:24.055Z,9.43
2022-09-29T18:13:17.683Z,6.83
2022-09-29T18:18:19.973Z,6.00
2022-09-29T18:23:15.724Z,4.67
2022-09-29T18:28:23.963Z,12.53
2022-09-29T18:33:18.611Z,8.23
2022-09-29T18:38:11.770Z,16.57
2022-09-29T18:43:06.542Z,14.23
2022-09-29T18:48:04.793Z,18.30
2022-09-29T18:53:00.187Z,17.67
2022-09-29T18:57:58.939Z,15.33
2022-09-29T19:02:54.471Z,9.57
2022-09-29T19:07:55.011Z,9.63
2022-09-29T19:12:48.759Z,7.90
2022-09-29T19:17:45.340Z,8.10
2022-09-29T19:22:42.630Z,8.40
2022-09-29T19:27:35.467Z,7.07
2022-09-29T19:32:32.212Z,6.50
2022-09-29T19:37:31.430Z,6.87
2022-09-29T19:42:27.300Z,6.23
2022-09-29T19:47:20.071Z,5.77
2022-09-29T19:52:12.899Z,7.50
2022-09-29T19:57:12.804Z,6.67
2022-09-29T20:02:12.882Z,6.90
2022-09-29T20:07:15.209Z,8.17
2022-09-29T20:12:18.518Z,7.00
2022-09-29T20:17:13.780Z,7.43
2022-09-29T20:22:09.768Z,7.07
2022-09-29T20:27:03.505Z,7.17
2022-09-29T20:31:56.301Z,6.70
2022-09-29T20:36:54.451Z,7.17
2022-09-29T20:41:49.812Z,7.87
2022-09-29T20:46:46.074Z,8.37
2022-09-29T20:51:38.764Z,7.30
2022-09-29T20:56:36.042Z,8.07
2022-09-29T21:01:32.652Z,8.63
2022-09-29T21:06:30.523Z,9.13
2022-09-29T21:11:22.920Z,14.77
2022-09-29T21:16:16.618Z,10.77
2022-09-29T21:21:09.105Z,9.07
2022-09-29T21:26:08.045Z,9.03
2022-09-29T21:31:08.534Z,8.77
2022-09-29T21:36:02.678Z,8.33
2022-09-29T21:40:54.826Z,9.63
2022-09-29T21:45:47.001Z,10.63
2022-09-29T21:50:39.191Z,11.17
2022-09-29T21:55:31.968Z,12.10
2022-09-29T22:00:24.412Z,9.43
2022-09-29T22:05:16.773Z,11.27
2022-09-29T22:10:09.440Z,11.77
2022-09-29T22:15:02.950Z,10.93
2022-09-29T22:20:51.496Z,10.40
2022-09-29T22:26:58.918Z,11.40
2022-09-29T22:33:05.473Z,10.57
2022-09-29T22:39:12.791Z,11.07
2022-09-29T22:45:19.722Z,11.67
2022-09-29T22:51:27.913Z,10.30
2022-09-29T22:57:35.159Z,9.67
2022-09-29T23:03:42.071Z,8.53
2022-09-29T23:09:49.436Z,8.53
2022-09-29T23:15:56.397Z,7.90
2022-09-29T23:22:03.641Z,8.13
2022-09-29T23:28:10.443Z,8.30
2022-09-29T23:34:17.631Z,8.80
2022-09-29T23:40:25.384Z,8.37
2022-09-29T23:46:32.404Z,7.70
2022-09-29T23:52:39.451Z,8.30
2022-09-29T23:58:47.087Z,7.43
